sensor_id;sensor_type;location;lat;lon;timestamp;temperature;humidity
41876;DHT22;27555;50.808;4.402;2022-08-30T00:01:33;19.80;95.90
41876;DHT22;27555;50.808;4.402;2022-08-30T00:04:01;19.70;96.30
41876;DHT22;27555;50.808;4.402;2022-08-30T00:06:29;19.70;96.50
41876;DHT22;27555;50.808;4.402;2022-08-30T00:08:55;19.80;96.60
41876;DHT22;27555;50.808;4.402;2022-08-30T00:11:25;19.90;96.70
41876;DHT22;27555;50.808;4.402;2022-08-30T00:13:53;19.90;96.60
41876;DHT22;27555;50.808;4.402;2022-08-30T00:16:21;19.90;96.80
41876;DHT22;27555;50.808;4.402;2022-08-30T00:18:48;20.00;96.90
41876;DHT22;27555;50.808;4.402;2022-08-30T00:21:14;20.00;97.10
41876;DHT22;27555;50.808;4.402;2022-08-30T00:23:40;19.90;97.40
41876;DHT22;27555;50.808;4.402;2022-08-30T00:26:06;19.90;97.60
41876;DHT22;27555;50.808;4.402;2022-08-30T00:28:32;20.00;97.70
41876;DHT22;27555;50.808;4.402;2022-08-30T00:30:59;20.00;97.90
41876;DHT22;27555;50.808;4.402;2022-08-30T00:33:26;20.00;97.90
41876;DHT22;27555;50.808;4.402;2022-08-30T00:35:52;20.00;98.10
41876;DHT22;27555;50.808;4.402;2022-08-30T00:38:17;20.00;98.20
41876;DHT22;27555;50.808;4.402;2022-08-30T00:40:44;19.90;98.60
41876;DHT22;27555;50.808;4.402;2022-08-30T00:43:20;19.80;98.90
41876;DHT22;27555;50.808;4.402;2022-08-30T00:45:48;19.70;99.20
41876;DHT22;27555;50.808;4.402;2022-08-30T00:48:14;19.70;99.50
41876;DHT22;27555;50.808;4.402;2022-08-30T00:50:46;19.90;99.50
41876;DHT22;27555;50.808;4.402;2022-08-30T00:53:24;19.90;99.50
41876;DHT22;27555;50.808;4.402;2022-08-30T00:55:51;20.00;99.40
41876;DHT22;27555;50.808;4.402;2022-08-30T00:58:21;20.10;99.50
41876;DHT22;27555;50.808;4.402;2022-08-30T01:00:52;20.00;99.70
41876;DHT22;27555;50.808;4.402;2022-08-30T01:03:18;19.90;99.90
41876;DHT22;27555;50.808;4.402;2022-08-30T01:05:45;19.80;99.90
41876;DHT22;27555;50.808;4.402;2022-08-30T01:08:13;19.80;99.90
41876;DHT22;27555;50.808;4.402;2022-08-30T01:10:41;19.70;99.90
41876;DHT22;27555;50.808;4.402;2022-08-30T01:13:07;19.60;99.90
41876;DHT22;27555;50.808;4.402;2022-08-30T01:15:33;19.50;99.90
41876;DHT22;27555;50.808;4.402;2022-08-30T01:18:00;19.50;99.90
41876;DHT22;27555;50.808;4.402;2022-08-30T01:20:32;19.70;99.90
41876;DHT22;27555;50.808;4.402;2022-08-30T01:23:14;19.70;99.90
41876;DHT22;27555;50.808;4.402;2022-08-30T01:25:42;19.50;99.90
41876;DHT22;27555;50.808;4.402;2022-08-30T01:28:14;19.40;99.90
41876;DHT22;27555;50.808;4.402;2022-08-30T01:30:41;19.40;99.90
41876;DHT22;27555;50.808;4.402;2022-08-30T01:33:08;19.30;99.90
41876;DHT22;27555;50.808;4.402;2022-08-30T01:35:48;19.20;99.90
41876;DHT22;27555;50.808;4.402;2022-08-30T01:38:16;19.20;99.90
41876;DHT22;27555;50.808;4.402;2022-08-30T01:40:43;19.30;99.90
41876;DHT22;27555;50.808;4.402;2022-08-30T01:43:11;19.20;99.90
41876;DHT22;27555;50.808;4.402;2022-08-30T01:45:37;19.20;99.90
41876;DHT22;27555;50.808;4.402;2022-08-30T01:48:03;19.00;99.90
41876;DHT22;27555;50.808;4.402;2022-08-30T01:50:29;19.00;99.90
41876;DHT22;27555;50.808;4.402;2022-08-30T01:52:54;19.00;99.90
41876;DHT22;27555;50.808;4.402;2022-08-30T01:55:20;19.00;99.90
41876;DHT22;27555;50.808;4.402;2022-08-30T01:57:46;19.00;99.90
41876;DHT22;27555;50.808;4.402;2022-08-30T02:00:16;19.00;99.90
41876;DHT22;27555;50.808;4.402;2022-08-30T02:02:42;19.10;99.90
41876;DHT22;27555;50.808;4.402;2022-08-30T02:05:09;18.90;99.90
41876;DHT22;27555;50.808;4.402;2022-08-30T02:07:35;18.80;99.90
41876;DHT22;27555;50.808;4.402;2022-08-30T02:10:02;18.80;99.90
41876;DHT22;27555;50.808;4.402;2022-08-30T02:12:28;18.70;99.90
41876;DHT22;27555;50.808;4.402;2022-08-30T02:14:55;18.50;99.90
41876;DHT22;27555;50.808;4.402;2022-08-30T02:17:21;18.40;99.90
41876;DHT22;27555;50.808;4.402;2022-08-30T02:19:47;18.40;99.90
41876;DHT22;27555;50.808;4.402;2022-08-30T02:22:18;18.60;99.90
41876;DHT22;27555;50.808;4.402;2022-08-30T02:24:45;18.60;99.90
41876;DHT22;27555;50.808;4.402;2022-08-30T02:27:12;18.30;99.90
41876;DHT22;27555;50.808;4.402;2022-08-30T02:29:38;18.30;99.90
41876;DHT22;27555;50.808;4.402;2022-08-30T02:32:04;18.40;99.90
41876;DHT22;27555;50.808;4.402;2022-08-30T02:34:30;18.30;99.90
41876;DHT22;27555;50.808;4.402;2022-08-30T02:36:55;18.20;99.90
41876;DHT22;27555;50.808;4.402;2022-08-30T02:39:22;18.30;99.90
41876;DHT22;27555;50.808;4.402;2022-08-30T02:41:47;18.10;99.90
41876;DHT22;27555;50.808;4.402;2022-08-30T02:44:13;18.10;99.90
41876;DHT22;27555;50.808;4.402;2022-08-30T02:46:40;18.30;99.90
41876;DHT22;27555;50.808;4.402;2022-08-30T02:49:06;18.50;99.90
41876;DHT22;27555;50.808;4.402;2022-08-30T02:51:38;18.50;99.90
41876;DHT22;27555;50.808;4.402;2022-08-30T02:54:05;18.50;99.90
41876;DHT22;27555;50.808;4.402;2022-08-30T02:56:32;18.30;99.90
41876;DHT22;27555;50.808;4.402;2022-08-30T02:58:59;18.10;99.90
41876;DHT22;27555;50.808;4.402;2022-08-30T03:01:26;18.20;99.90
41876;DHT22;27555;50.808;4.402;2022-08-30T03:03:51;18.30;99.90
41876;DHT22;27555;50.808;4.402;2022-08-30T03:06:17;18.30;99.90
41876;DHT22;27555;50.808;4.402;2022-08-30T03:08:43;18.40;99.90
41876;DHT22;27555;50.808;4.402;2022-08-30T03:11:09;18.40;99.90
41876;DHT22;27555;50.808;4.402;2022-08-30T03:13:35;18.20;99.90
41876;DHT22;27555;50.808;4.402;2022-08-30T03:16:01;18.20;99.90
41876;DHT22;27555;50.808;4.402;2022-08-30T03:18:26;18.10;99.90
41876;DHT22;27555;50.808;4.402;2022-08-30T03:20:53;18.10;99.90
41876;DHT22;27555;50.808;4.402;2022-08-30T03:23:19;18.30;99.90
41876;DHT22;27555;50.808;4.402;2022-08-30T03:25:45;18.50;99.90
41876;DHT22;27555;50.808;4.402;2022-08-30T03:28:10;18.40;99.90
41876;DHT22;27555;50.808;4.402;2022-08-30T03:30:36;18.20;99.90
41876;DHT22;27555;50.808;4.402;2022-08-30T03:33:02;18.10;99.90
41876;DHT22;27555;50.808;4.402;2022-08-30T03:35:29;18.30;99.90
41876;DHT22;27555;50.808;4.402;2022-08-30T03:37:56;18.40;99.90
41876;DHT22;27555;50.808;4.402;2022-08-30T03:40:22;18.30;99.90
41876;DHT22;27555;50.808;4.402;2022-08-30T03:42:48;18.30;99.90
41876;DHT22;27555;50.808;4.402;2022-08-30T03:45:16;18.50;99.90
41876;DHT22;27555;50.808;4.402;2022-08-30T03:47:43;18.50;99.90
41876;DHT22;27555;50.808;4.402;2022-08-30T03:50:09;18.60;99.90
41876;DHT22;27555;50.808;4.402;2022-08-30T03:52:35;18.60;99.90
41876;DHT22;27555;50.808;4.402;2022-08-30T03:55:03;18.70;99.90
41876;DHT22;27555;50.808;4.402;2022-08-30T03:57:29;18.70;99.90
41876;DHT22;27555;50.808;4.402;2022-08-30T03:59:55;18.70;99.90
41876;DHT22;27555;50.808;4.402;2022-08-30T04:02:21;18.70;99.90
41876;DHT22;27555;50.808;4.402;2022-08-30T04:04:46;18.70;99.90
41876;DHT22;27555;50.808;4.402;2022-08-30T04:07:13;18.70;99.90
41876;DHT22;27555;50.808;4.402;2022-08-30T04:09:38;18.70;99.90
41876;DHT22;27555;50.808;4.402;2022-08-30T04:12:04;18.70;99.90
41876;DHT22;27555;50.808;4.402;2022-08-30T04:14:30;18.70;99.90
41876;DHT22;27555;50.808;4.402;2022-08-30T04:16:57;18.70;99.90
41876;DHT22;27555;50.808;4.402;2022-08-30T04:19:23;18.50;99.90
41876;DHT22;27555;50.808;4.402;2022-08-30T04:21:49;18.40;99.90
41876;DHT22;27555;50.808;4.402;2022-08-30T04:24:15;18.30;99.90
41876;DHT22;27555;50.808;4.402;2022-08-30T04:26:41;18.30;99.90
41876;DHT22;27555;50.808;4.402;2022-08-30T04:29:06;18.50;99.90
41876;DHT22;27555;50.808;4.402;2022-08-30T04:31:32;18.40;99.90
41876;DHT22;27555;50.808;4.402;2022-08-30T04:33:58;18.30;99.90
41876;DHT22;27555;50.808;4.402;2022-08-30T04:36:24;18.30;99.90
41876;DHT22;27555;50.808;4.402;2022-08-30T04:38:49;18.40;99.90
41876;DHT22;27555;50.808;4.402;2022-08-30T04:41:17;18.30;99.90
41876;DHT22;27555;50.808;4.402;2022-08-30T04:43:45;18.20;99.90
41876;DHT22;27555;50.808;4.402;2022-08-30T04:46:12;18.10;99.90
41876;DHT22;27555;50.808;4.402;2022-08-30T04:48:40;18.10;99.90
41876;DHT22;27555;50.808;4.402;2022-08-30T04:51:07;18.00;99.90
41876;DHT22;27555;50.808;4.402;2022-08-30T04:53:34;18.00;99.90
41876;DHT22;27555;50.808;4.402;2022-08-30T04:56:00;18.00;99.90
41876;DHT22;27555;50.808;4.402;2022-08-30T04:58:25;18.00;99.90
41876;DHT22;27555;50.808;4.402;2022-08-30T05:00:51;18.00;99.90
41876;DHT22;27555;50.808;4.402;2022-08-30T05:03:17;18.10;99.90
41876;DHT22;27555;50.808;4.402;2022-08-30T05:05:47;18.10;99.90
41876;DHT22;27555;50.808;4.402;2022-08-30T05:08:16;18.20;99.90
41876;DHT22;27555;50.808;4.402;2022-08-30T05:10:47;18.30;99.90
41876;DHT22;27555;50.808;4.402;2022-08-30T05:13:14;18.00;99.90
41876;DHT22;27555;50.808;4.402;2022-08-30T05:15:40;18.00;99.90
41876;DHT22;27555;50.808;4.402;2022-08-30T05:18:08;18.00;99.90
41876;DHT22;27555;50.808;4.402;2022-08-30T05:20:35;18.00;99.90
41876;DHT22;27555;50.808;4.402;2022-08-30T05:23:01;18.00;99.90
41876;DHT22;27555;50.808;4.402;2022-08-30T05:25:30;18.00;99.90
41876;DHT22;27555;50.808;4.402;2022-08-30T05:27:56;18.00;99.90
41876;DHT22;27555;50.808;4.402;2022-08-30T05:30:23;18.00;99.90
41876;DHT22;27555;50.808;4.402;2022-08-30T05:32:50;18.00;99.90
41876;DHT22;27555;50.808;4.402;2022-08-30T05:35:17;18.20;99.90
41876;DHT22;27555;50.808;4.402;2022-08-30T05:37:43;18.20;99.90
41876;DHT22;27555;50.808;4.402;2022-08-30T05:40:09;18.20;99.90
41876;DHT22;27555;50.808;4.402;2022-08-30T05:42:35;18.30;99.90
41876;DHT22;27555;50.808;4.402;2022-08-30T05:45:03;18.30;99.90
41876;DHT22;27555;50.808;4.402;2022-08-30T05:47:29;18.20;99.90
41876;DHT22;27555;50.808;4.402;2022-08-30T05:49:54;18.30;99.90
41876;DHT22;27555;50.808;4.402;2022-08-30T05:52:20;18.40;99.90
41876;DHT22;27555;50.808;4.402;2022-08-30T05:54:51;18.40;99.90
41876;DHT22;27555;50.808;4.402;2022-08-30T05:57:17;18.60;99.90
41876;DHT22;27555;50.808;4.402;2022-08-30T05:59:43;18.50;99.90
41876;DHT22;27555;50.808;4.402;2022-08-30T06:02:10;18.50;99.90
41876;DHT22;27555;50.808;4.402;2022-08-30T06:04:36;18.60;99.90
41876;DHT22;27555;50.808;4.402;2022-08-30T06:07:02;18.60;99.90
41876;DHT22;27555;50.808;4.402;2022-08-30T06:09:28;18.70;99.90
41876;DHT22;27555;50.808;4.402;2022-08-30T06:11:54;18.60;99.90
41876;DHT22;27555;50.808;4.402;2022-08-30T06:14:20;18.50;99.90
41876;DHT22;27555;50.808;4.402;2022-08-30T06:16:46;18.70;99.90
41876;DHT22;27555;50.808;4.402;2022-08-30T06:19:13;18.80;99.90
41876;DHT22;27555;50.808;4.402;2022-08-30T06:21:40;18.70;99.90
41876;DHT22;27555;50.808;4.402;2022-08-30T06:24:08;18.70;99.90
41876;DHT22;27555;50.808;4.402;2022-08-30T06:26:43;18.80;99.90
41876;DHT22;27555;50.808;4.402;2022-08-30T06:29:11;18.90;99.90
41876;DHT22;27555;50.808;4.402;2022-08-30T06:31:37;18.80;99.90
41876;DHT22;27555;50.808;4.402;2022-08-30T06:34:03;18.90;99.90
41876;DHT22;27555;50.808;4.402;2022-08-30T06:36:29;19.00;99.90
41876;DHT22;27555;50.808;4.402;2022-08-30T06:38:56;19.00;99.90
41876;DHT22;27555;50.808;4.402;2022-08-30T06:41:24;19.00;99.90
41876;DHT22;27555;50.808;4.402;2022-08-30T06:43:51;18.90;99.90
41876;DHT22;27555;50.808;4.402;2022-08-30T06:46:21;19.00;99.90
41876;DHT22;27555;50.808;4.402;2022-08-30T06:48:47;19.00;99.90
41876;DHT22;27555;50.808;4.402;2022-08-30T06:51:13;19.10;99.90
41876;DHT22;27555;50.808;4.402;2022-08-30T06:53:39;19.20;99.90
41876;DHT22;27555;50.808;4.402;2022-08-30T06:56:07;19.20;99.90
41876;DHT22;27555;50.808;4.402;2022-08-30T06:58:34;19.40;99.90
41876;DHT22;27555;50.808;4.402;2022-08-30T07:01:00;19.40;99.90
41876;DHT22;27555;50.808;4.402;2022-08-30T07:03:26;19.50;99.90
41876;DHT22;27555;50.808;4.402;2022-08-30T07:05:53;19.50;99.90
41876;DHT22;27555;50.808;4.402;2022-08-30T07:08:19;19.50;99.90
41876;DHT22;27555;50.808;4.402;2022-08-30T07:10:45;19.60;99.90
41876;DHT22;27555;50.808;4.402;2022-08-30T07:13:11;19.80;99.90
41876;DHT22;27555;50.808;4.402;2022-08-30T07:15:40;20.00;99.90
41876;DHT22;27555;50.808;4.402;2022-08-30T07:18:07;20.20;99.90
41876;DHT22;27555;50.808;4.402;2022-08-30T07:20:51;20.30;99.90
41876;DHT22;27555;50.808;4.402;2022-08-30T07:23:16;20.20;99.90
41876;DHT22;27555;50.808;4.402;2022-08-30T07:25:42;20.40;99.90
41876;DHT22;27555;50.808;4.402;2022-08-30T07:28:11;20.90;99.90
41876;DHT22;27555;50.808;4.402;2022-08-30T07:30:39;21.20;99.90
41876;DHT22;27555;50.808;4.402;2022-08-30T07:33:05;21.70;99.90
41876;DHT22;27555;50.808;4.402;2022-08-30T07:35:31;22.30;99.90
41876;DHT22;27555;50.808;4.402;2022-08-30T07:37:57;22.60;99.60
41876;DHT22;27555;50.808;4.402;2022-08-30T07:40:23;23.20;98.90
41876;DHT22;27555;50.808;4.402;2022-08-30T07:42:48;23.60;97.80
41876;DHT22;27555;50.808;4.402;2022-08-30T07:45:14;23.90;97.20
41876;DHT22;27555;50.808;4.402;2022-08-30T07:47:40;23.90;96.70
41876;DHT22;27555;50.808;4.402;2022-08-30T07:50:07;24.50;95.90
41876;DHT22;27555;50.808;4.402;2022-08-30T07:52:33;25.20;94.80
41876;DHT22;27555;50.808;4.402;2022-08-30T07:54:59;25.80;93.80
41876;DHT22;27555;50.808;4.402;2022-08-30T07:57:25;26.00;92.90
41876;DHT22;27555;50.808;4.402;2022-08-30T07:59:51;26.30;92.70
41876;DHT22;27555;50.808;4.402;2022-08-30T08:02:18;26.70;92.10
41876;DHT22;27555;50.808;4.402;2022-08-30T08:04:44;26.80;91.40
41876;DHT22;27555;50.808;4.402;2022-08-30T08:07:10;26.60;91.30
41876;DHT22;27555;50.808;4.402;2022-08-30T08:09:37;26.60;91.20
41876;DHT22;27555;50.808;4.402;2022-08-30T08:12:04;26.80;91.00
41876;DHT22;27555;50.808;4.402;2022-08-30T08:14:31;26.90;90.70
41876;DHT22;27555;50.808;4.402;2022-08-30T08:16:57;26.70;90.60
41876;DHT22;27555;50.808;4.402;2022-08-30T08:19:22;26.80;90.70
41876;DHT22;27555;50.808;4.402;2022-08-30T08:21:48;27.30;89.90
41876;DHT22;27555;50.808;4.402;2022-08-30T08:24:14;27.90;89.00
41876;DHT22;27555;50.808;4.402;2022-08-30T08:26:41;28.40;87.20
41876;DHT22;27555;50.808;4.402;2022-08-30T08:29:07;28.60;86.60
41876;DHT22;27555;50.808;4.402;2022-08-30T08:31:34;28.90;86.20
41876;DHT22;27555;50.808;4.402;2022-08-30T08:34:04;29.30;84.30
41876;DHT22;27555;50.808;4.402;2022-08-30T08:36:30;29.20;84.20
41876;DHT22;27555;50.808;4.402;2022-08-30T08:38:56;29.20;83.80
41876;DHT22;27555;50.808;4.402;2022-08-30T08:47:17;29.10;83.80
41876;DHT22;27555;50.808;4.402;2022-08-30T08:49:46;28.80;83.50
41876;DHT22;27555;50.808;4.402;2022-08-30T08:52:20;29.40;82.80
41876;DHT22;27555;50.808;4.402;2022-08-30T08:55:09;29.50;82.40
41876;DHT22;27555;50.808;4.402;2022-08-30T08:57:36;29.90;81.80
41876;DHT22;27555;50.808;4.402;2022-08-30T09:00:08;30.10;80.90
41876;DHT22;27555;50.808;4.402;2022-08-30T09:02:54;30.40;80.40
41876;DHT22;27555;50.808;4.402;2022-08-30T09:05:22;30.80;79.60
41876;DHT22;27555;50.808;4.402;2022-08-30T09:07:56;30.80;78.80
41876;DHT22;27555;50.808;4.402;2022-08-30T09:10:23;30.90;78.80
41876;DHT22;27555;50.808;4.402;2022-08-30T09:12:50;30.90;78.30
41876;DHT22;27555;50.808;4.402;2022-08-30T09:17:50;31.30;77.60
41876;DHT22;27555;50.808;4.402;2022-08-30T09:20:35;31.20;78.00
41876;DHT22;27555;50.808;4.402;2022-08-30T09:23:24;31.20;77.30
41876;DHT22;27555;50.808;4.402;2022-08-30T09:26:11;31.20;76.60
41876;DHT22;27555;50.808;4.402;2022-08-30T09:28:48;30.60;77.50
41876;DHT22;27555;50.808;4.402;2022-08-30T09:31:47;30.40;77.50
41876;DHT22;27555;50.808;4.402;2022-08-30T09:34:19;30.10;78.20
41876;DHT22;27555;50.808;4.402;2022-08-30T09:36:47;30.40;77.60
41876;DHT22;27555;50.808;4.402;2022-08-30T09:39:29;29.70;78.80
41876;DHT22;27555;50.808;4.402;2022-08-30T09:42:14;29.10;79.40
41876;DHT22;27555;50.808;4.402;2022-08-30T09:44:43;29.70;79.30
41876;DHT22;27555;50.808;4.402;2022-08-30T09:47:21;30.40;78.50
41876;DHT22;27555;50.808;4.402;2022-08-30T09:50:05;30.70;77.70
41876;DHT22;27555;50.808;4.402;2022-08-30T09:52:44;30.60;78.10
41876;DHT22;27555;50.808;4.402;2022-08-30T10:00:59;31.00;76.70
41876;DHT22;27555;50.808;4.402;2022-08-30T10:03:57;30.70;76.90
41876;DHT22;27555;50.808;4.402;2022-08-30T10:06:33;31.00;76.60
41876;DHT22;27555;50.808;4.402;2022-08-30T10:12:12;31.30;75.60
41876;DHT22;27555;50.808;4.402;2022-08-30T10:17:50;31.20;75.40
41876;DHT22;27555;50.808;4.402;2022-08-30T10:20:26;31.50;74.60
41876;DHT22;27555;50.808;4.402;2022-08-30T10:23:28;31.80;74.10
41876;DHT22;27555;50.808;4.402;2022-08-30T10:26:12;32.20;74.00
41876;DHT22;27555;50.808;4.402;2022-08-30T10:28:59;33.00;73.00
41876;DHT22;27555;50.808;4.402;2022-08-30T10:31:38;33.50;72.00
41876;DHT22;27555;50.808;4.402;2022-08-30T10:34:08;33.50;71.60
41876;DHT22;27555;50.808;4.402;2022-08-30T10:37:00;32.90;72.10
41876;DHT22;27555;50.808;4.402;2022-08-30T10:39:31;32.50;72.60
41876;DHT22;27555;50.808;4.402;2022-08-30T10:42:06;33.20;72.10
41876;DHT22;27555;50.808;4.402;2022-08-30T10:44:41;33.40;71.60
41876;DHT22;27555;50.808;4.402;2022-08-30T10:49:42;33.40;71.30
41876;DHT22;27555;50.808;4.402;2022-08-30T10:52:32;34.30;71.20
41876;DHT22;27555;50.808;4.402;2022-08-30T10:55:20;33.80;70.40
41876;DHT22;27555;50.808;4.402;2022-08-30T10:57:48;34.00;70.30
41876;DHT22;27555;50.808;4.402;2022-08-30T11:00:28;34.20;70.20
41876;DHT22;27555;50.808;4.402;2022-08-30T11:09:09;33.10;70.70
41876;DHT22;27555;50.808;4.402;2022-08-30T11:14:43;34.60;69.60
41876;DHT22;27555;50.808;4.402;2022-08-30T11:17:41;34.60;68.90
41876;DHT22;27555;50.808;4.402;2022-08-30T11:20:32;34.50;69.30
41876;DHT22;27555;50.808;4.402;2022-08-30T11:32:56;34.90;67.90
41876;DHT22;27555;50.808;4.402;2022-08-30T11:37:42;32.20;70.20
41876;DHT22;27555;50.808;4.402;2022-08-30T11:42:53;33.20;69.70
41876;DHT22;27555;50.808;4.402;2022-08-30T11:53:14;32.60;69.30
41876;DHT22;27555;50.808;4.402;2022-08-30T11:56:12;31.90;69.90
41876;DHT22;27555;50.808;4.402;2022-08-30T12:03:42;32.70;69.50
41876;DHT22;27555;50.808;4.402;2022-08-30T12:06:09;32.70;69.40
41876;DHT22;27555;50.808;4.402;2022-08-30T12:08:45;33.10;69.20
41876;DHT22;27555;50.808;4.402;2022-08-30T12:13:49;32.40;69.40
41876;DHT22;27555;50.808;4.402;2022-08-30T12:16:22;33.10;69.00
41876;DHT22;27555;50.808;4.402;2022-08-30T12:18:59;33.20;68.70
41876;DHT22;27555;50.808;4.402;2022-08-30T12:21:35;32.90;68.80
41876;DHT22;27555;50.808;4.402;2022-08-30T12:24:27;32.40;69.90
41876;DHT22;27555;50.808;4.402;2022-08-30T12:26:54;31.40;70.60
41876;DHT22;27555;50.808;4.402;2022-08-30T12:29:28;30.80;71.40
41876;DHT22;27555;50.808;4.402;2022-08-30T12:32:03;30.40;72.20
41876;DHT22;27555;50.808;4.402;2022-08-30T12:34:36;30.10;72.70
41876;DHT22;27555;50.808;4.402;2022-08-30T12:37:23;29.80;73.00
41876;DHT22;27555;50.808;4.402;2022-08-30T12:40:17;29.30;73.40
41876;DHT22;27555;50.808;4.402;2022-08-30T12:43:01;29.20;74.00
41876;DHT22;27555;50.808;4.402;2022-08-30T12:45:42;29.00;74.60
41876;DHT22;27555;50.808;4.402;2022-08-30T12:48:16;29.00;74.80
41876;DHT22;27555;50.808;4.402;2022-08-30T12:50:49;28.80;75.10
41876;DHT22;27555;50.808;4.402;2022-08-30T12:53:34;28.80;74.90
41876;DHT22;27555;50.808;4.402;2022-08-30T12:58:46;29.30;74.00
41876;DHT22;27555;50.808;4.402;2022-08-30T13:01:33;29.10;74.50
41876;DHT22;27555;50.808;4.402;2022-08-30T13:06:38;28.50;75.60
41876;DHT22;27555;50.808;4.402;2022-08-30T13:09:04;28.40;75.60
41876;DHT22;27555;50.808;4.402;2022-08-30T13:11:30;28.50;75.70
41876;DHT22;27555;50.808;4.402;2022-08-30T13:16:44;28.40;76.10
41876;DHT22;27555;50.808;4.402;2022-08-30T13:21:55;28.40;76.10
41876;DHT22;27555;50.808;4.402;2022-08-30T13:24:21;28.20;76.60
41876;DHT22;27555;50.808;4.402;2022-08-30T13:26:47;28.20;76.80
41876;DHT22;27555;50.808;4.402;2022-08-30T13:29:16;28.20;77.00
41876;DHT22;27555;50.808;4.402;2022-08-30T13:31:43;28.20;76.90
41876;DHT22;27555;50.808;4.402;2022-08-30T13:34:08;28.30;76.20
41876;DHT22;27555;50.808;4.402;2022-08-30T13:36:36;28.40;76.50
41876;DHT22;27555;50.808;4.402;2022-08-30T13:39:04;28.70;76.30
41876;DHT22;27555;50.808;4.402;2022-08-30T13:41:30;28.90;75.90
41876;DHT22;27555;50.808;4.402;2022-08-30T13:43:56;28.90;75.40
41876;DHT22;27555;50.808;4.402;2022-08-30T13:46:29;29.10;75.20
41876;DHT22;27555;50.808;4.402;2022-08-30T13:49:06;29.00;75.30
41876;DHT22;27555;50.808;4.402;2022-08-30T13:51:32;29.00;75.10
41876;DHT22;27555;50.808;4.402;2022-08-30T13:53:58;29.00;75.00
41876;DHT22;27555;50.808;4.402;2022-08-30T13:56:26;28.60;75.40
41876;DHT22;27555;50.808;4.402;2022-08-30T13:58:59;28.70;75.90
41876;DHT22;27555;50.808;4.402;2022-08-30T14:01:25;28.70;75.70
41876;DHT22;27555;50.808;4.402;2022-08-30T14:03:50;28.70;75.50
41876;DHT22;27555;50.808;4.402;2022-08-30T14:06:17;28.50;76.00
41876;DHT22;27555;50.808;4.402;2022-08-30T14:08:43;28.50;76.20
41876;DHT22;27555;50.808;4.402;2022-08-30T14:11:09;28.50;76.50
41876;DHT22;27555;50.808;4.402;2022-08-30T14:13:38;28.50;75.90
41876;DHT22;27555;50.808;4.402;2022-08-30T14:16:06;28.50;75.80
41876;DHT22;27555;50.808;4.402;2022-08-30T14:18:32;28.30;75.90
41876;DHT22;27555;50.808;4.402;2022-08-30T14:20:58;28.30;76.20
41876;DHT22;27555;50.808;4.402;2022-08-30T14:23:24;28.20;76.30
41876;DHT22;27555;50.808;4.402;2022-08-30T14:25:51;28.10;76.70
41876;DHT22;27555;50.808;4.402;2022-08-30T14:28:17;28.10;76.70
41876;DHT22;27555;50.808;4.402;2022-08-30T14:30:42;28.20;76.90
41876;DHT22;27555;50.808;4.402;2022-08-30T14:33:08;28.20;76.70
41876;DHT22;27555;50.808;4.402;2022-08-30T14:35:34;28.10;76.60
41876;DHT22;27555;50.808;4.402;2022-08-30T14:38:00;28.10;76.40
41876;DHT22;27555;50.808;4.402;2022-08-30T14:40:25;27.90;76.70
41876;DHT22;27555;50.808;4.402;2022-08-30T14:42:51;27.90;77.00
41876;DHT22;27555;50.808;4.402;2022-08-30T14:45:17;27.90;77.20
41876;DHT22;27555;50.808;4.402;2022-08-30T14:47:43;27.90;77.20
41876;DHT22;27555;50.808;4.402;2022-08-30T14:50:08;28.10;76.80
41876;DHT22;27555;50.808;4.402;2022-08-30T14:52:35;28.00;77.10
41876;DHT22;27555;50.808;4.402;2022-08-30T14:55:02;28.20;76.80
41876;DHT22;27555;50.808;4.402;2022-08-30T14:57:29;28.10;76.90
41876;DHT22;27555;50.808;4.402;2022-08-30T14:59:54;28.10;76.60
41876;DHT22;27555;50.808;4.402;2022-08-30T15:02:20;28.00;76.70
41876;DHT22;27555;50.808;4.402;2022-08-30T15:04:45;27.80;77.00
41876;DHT22;27555;50.808;4.402;2022-08-30T15:07:11;27.80;77.00
41876;DHT22;27555;50.808;4.402;2022-08-30T15:09:37;27.90;76.80
41876;DHT22;27555;50.808;4.402;2022-08-30T15:12:03;27.80;77.60
41876;DHT22;27555;50.808;4.402;2022-08-30T15:14:31;27.90;76.50
41876;DHT22;27555;50.808;4.402;2022-08-30T15:16:57;27.80;76.90
41876;DHT22;27555;50.808;4.402;2022-08-30T15:19:24;27.60;77.40
41876;DHT22;27555;50.808;4.402;2022-08-30T15:21:50;27.60;77.30
41876;DHT22;27555;50.808;4.402;2022-08-30T15:24:19;27.60;77.30
41876;DHT22;27555;50.808;4.402;2022-08-30T15:26:45;27.50;77.30
41876;DHT22;27555;50.808;4.402;2022-08-30T15:29:13;27.40;77.50
41876;DHT22;27555;50.808;4.402;2022-08-30T15:31:40;27.40;77.50
41876;DHT22;27555;50.808;4.402;2022-08-30T15:34:07;27.40;77.40
41876;DHT22;27555;50.808;4.402;2022-08-30T15:36:34;27.60;77.10
41876;DHT22;27555;50.808;4.402;2022-08-30T15:38:59;27.70;76.90
41876;DHT22;27555;50.808;4.402;2022-08-30T15:41:26;27.60;76.70
41876;DHT22;27555;50.808;4.402;2022-08-30T15:43:54;27.60;76.80
41876;DHT22;27555;50.808;4.402;2022-08-30T15:46:23;27.70;76.40
41876;DHT22;27555;50.808;4.402;2022-08-30T15:48:52;27.60;76.60
41876;DHT22;27555;50.808;4.402;2022-08-30T15:51:21;27.50;76.70
41876;DHT22;27555;50.808;4.402;2022-08-30T15:53:47;27.40;76.80
41876;DHT22;27555;50.808;4.402;2022-08-30T15:56:13;27.30;76.80
41876;DHT22;27555;50.808;4.402;2022-08-30T15:58:40;27.20;77.30
41876;DHT22;27555;50.808;4.402;2022-08-30T16:01:06;27.40;77.10
41876;DHT22;27555;50.808;4.402;2022-08-30T16:03:33;27.50;76.80
41876;DHT22;27555;50.808;4.402;2022-08-30T16:05:59;27.60;76.20
41876;DHT22;27555;50.808;4.402;2022-08-30T16:08:26;27.80;75.90
41876;DHT22;27555;50.808;4.402;2022-08-30T16:10:52;27.60;76.20
41876;DHT22;27555;50.808;4.402;2022-08-30T16:13:17;27.30;76.80
41876;DHT22;27555;50.808;4.402;2022-08-30T16:15:43;27.20;76.80
41876;DHT22;27555;50.808;4.402;2022-08-30T16:18:11;27.20;76.90
41876;DHT22;27555;50.808;4.402;2022-08-30T16:20:42;27.20;76.50
41876;DHT22;27555;50.808;4.402;2022-08-30T16:23:11;27.20;76.50
41876;DHT22;27555;50.808;4.402;2022-08-30T16:25:37;27.00;76.80
41876;DHT22;27555;50.808;4.402;2022-08-30T16:28:02;26.80;77.20
41876;DHT22;27555;50.808;4.402;2022-08-30T16:30:28;26.80;77.10
41876;DHT22;27555;50.808;4.402;2022-08-30T16:32:54;26.80;77.30
41876;DHT22;27555;50.808;4.402;2022-08-30T16:35:20;26.80;77.00
41876;DHT22;27555;50.808;4.402;2022-08-30T16:37:45;26.70;77.40
41876;DHT22;27555;50.808;4.402;2022-08-30T16:40:11;26.60;78.00
41876;DHT22;27555;50.808;4.402;2022-08-30T16:42:37;26.60;78.10
41876;DHT22;27555;50.808;4.402;2022-08-30T16:45:03;26.40;78.50
41876;DHT22;27555;50.808;4.402;2022-08-30T16:47:30;26.30;78.90
41876;DHT22;27555;50.808;4.402;2022-08-30T16:49:58;26.20;79.20
41876;DHT22;27555;50.808;4.402;2022-08-30T16:52:24;26.00;79.10
41876;DHT22;27555;50.808;4.402;2022-08-30T16:54:50;26.00;79.50